sensor_id;sensor_type;location;lat;lon;timestamp;P1;durP1;ratioP1;P2;durP2;ratioP2
9160;SDS011;4615;51.340;8.288;2023-04-23T00:00:39;25.30;;;23.23;;
9160;SDS011;4615;51.340;8.288;2023-04-23T00:03:12;27.75;;;25.45;;
9160;SDS011;4615;51.340;8.288;2023-04-23T00:05:39;27.10;;;24.85;;
9160;SDS011;4615;51.340;8.288;2023-04-23T00:08:06;27.50;;;25.23;;
9160;SDS011;4615;51.340;8.288;2023-04-23T00:10:33;30.92;;;28.33;;
9160;SDS011;4615;51.340;8.288;2023-04-23T00:13:00;29.58;;;27.08;;
9160;SDS011;4615;51.340;8.288;2023-04-23T00:15:28;29.63;;;27.07;;
9160;SDS011;4615;51.340;8.288;2023-04-23T00:17:54;28.95;;;26.55;;
9160;SDS011;4615;51.340;8.288;2023-04-23T00:20:21;29.90;;;27.40;;
9160;SDS011;4615;51.340;8.288;2023-04-23T00:22:47;31.50;;;28.80;;
9160;SDS011;4615;51.340;8.288;2023-04-23T00:25:14;29.23;;;26.67;;
9160;SDS011;4615;51.340;8.288;2023-04-23T00:27:41;31.38;;;28.70;;
9160;SDS011;4615;51.340;8.288;2023-04-23T00:30:07;29.80;;;27.30;;
9160;SDS011;4615;51.340;8.288;2023-04-23T00:32:35;30.45;;;27.75;;
9160;SDS011;4615;51.340;8.288;2023-04-23T00:35:02;33.53;;;30.60;;
9160;SDS011;4615;51.340;8.288;2023-04-23T00:37:28;35.25;;;32.13;;
9160;SDS011;4615;51.340;8.288;2023-04-23T00:39:55;33.20;;;30.33;;
9160;SDS011;4615;51.340;8.288;2023-04-23T00:42:21;32.47;;;29.75;;
9160;SDS011;4615;51.340;8.288;2023-04-23T00:44:47;33.15;;;30.33;;
9160;SDS011;4615;51.340;8.288;2023-04-23T00:47:15;32.13;;;29.42;;
9160;SDS011;4615;51.340;8.288;2023-04-23T00:49:43;30.67;;;28.15;;
9160;SDS011;4615;51.340;8.288;2023-04-23T00:52:10;31.77;;;29.08;;
9160;SDS011;4615;51.340;8.288;2023-04-23T00:54:36;32.00;;;29.33;;
9160;SDS011;4615;51.340;8.288;2023-04-23T00:57:03;33.03;;;30.23;;
9160;SDS011;4615;51.340;8.288;2023-04-23T00:59:32;31.17;;;28.58;;
9160;SDS011;4615;51.340;8.288;2023-04-23T01:01:58;29.73;;;27.33;;
9160;SDS011;4615;51.340;8.288;2023-04-23T01:04:26;28.95;;;26.55;;
9160;SDS011;4615;51.340;8.288;2023-04-23T01:06:54;29.33;;;26.90;;
9160;SDS011;4615;51.340;8.288;2023-04-23T01:09:21;30.00;;;27.53;;
9160;SDS011;4615;51.340;8.288;2023-04-23T01:11:48;28.10;;;25.90;;
9160;SDS011;4615;51.340;8.288;2023-04-23T01:14:16;30.50;;;27.90;;
9160;SDS011;4615;51.340;8.288;2023-04-23T01:16:42;29.23;;;26.77;;
9160;SDS011;4615;51.340;8.288;2023-04-23T01:19:09;30.25;;;27.60;;
9160;SDS011;4615;51.340;8.288;2023-04-23T01:21:37;26.83;;;24.63;;
9160;SDS011;4615;51.340;8.288;2023-04-23T01:24:07;27.10;;;24.90;;
9160;SDS011;4615;51.340;8.288;2023-04-23T01:26:33;28.05;;;25.75;;
9160;SDS011;4615;51.340;8.288;2023-04-23T01:29:00;27.10;;;24.85;;
9160;SDS011;4615;51.340;8.288;2023-04-23T01:31:26;26.83;;;24.70;;
9160;SDS011;4615;51.340;8.288;2023-04-23T01:33:53;24.98;;;22.98;;
9160;SDS011;4615;51.340;8.288;2023-04-23T01:36:21;26.60;;;24.50;;
9160;SDS011;4615;51.340;8.288;2023-04-23T01:38:47;26.17;;;24.13;;
9160;SDS011;4615;51.340;8.288;2023-04-23T01:41:15;25.70;;;23.58;;
9160;SDS011;4615;51.340;8.288;2023-04-23T01:43:41;26.30;;;24.10;;
9160;SDS011;4615;51.340;8.288;2023-04-23T01:46:08;27.92;;;25.70;;
9160;SDS011;4615;51.340;8.288;2023-04-23T01:48:35;25.67;;;23.60;;
9160;SDS011;4615;51.340;8.288;2023-04-23T01:51:01;24.27;;;22.27;;
9160;SDS011;4615;51.340;8.288;2023-04-23T01:53:28;24.52;;;22.52;;
9160;SDS011;4615;51.340;8.288;2023-04-23T01:55:54;26.55;;;24.45;;
9160;SDS011;4615;51.340;8.288;2023-04-23T01:58:22;27.33;;;25.13;;
9160;SDS011;4615;51.340;8.288;2023-04-23T02:00:49;25.40;;;23.30;;
9160;SDS011;4615;51.340;8.288;2023-04-23T02:03:16;27.60;;;25.40;;
9160;SDS011;4615;51.340;8.288;2023-04-23T02:05:42;30.85;;;28.35;;
9160;SDS011;4615;51.340;8.288;2023-04-23T02:08:10;28.95;;;26.35;;
9160;SDS011;4615;51.340;8.288;2023-04-23T02:10:37;29.23;;;26.83;;
9160;SDS011;4615;51.340;8.288;2023-04-23T02:13:03;29.20;;;26.70;;
9160;SDS011;4615;51.340;8.288;2023-04-23T02:15:31;29.58;;;27.15;;
9160;SDS011;4615;51.340;8.288;2023-04-23T02:17:58;28.10;;;25.80;;
9160;SDS011;4615;51.340;8.288;2023-04-23T02:20:24;30.38;;;27.88;;
9160;SDS011;4615;51.340;8.288;2023-04-23T02:22:50;29.50;;;27.10;;
9160;SDS011;4615;51.340;8.288;2023-04-23T02:25:17;29.33;;;26.90;;
9160;SDS011;4615;51.340;8.288;2023-04-23T02:27:45;28.67;;;26.25;;
9160;SDS011;4615;51.340;8.288;2023-04-23T02:30:12;27.23;;;24.95;;
9160;SDS011;4615;51.340;8.288;2023-04-23T02:32:40;29.10;;;26.70;;
9160;SDS011;4615;51.340;8.288;2023-04-23T02:35:07;29.02;;;26.60;;
9160;SDS011;4615;51.340;8.288;2023-04-23T02:37:34;28.95;;;26.55;;
9160;SDS011;4615;51.340;8.288;2023-04-23T02:40:01;29.67;;;27.17;;
9160;SDS011;4615;51.340;8.288;2023-04-23T02:42:31;28.20;;;26.00;;
9160;SDS011;4615;51.340;8.288;2023-04-23T02:44:57;28.98;;;26.50;;
9160;SDS011;4615;51.340;8.288;2023-04-23T02:47:24;30.08;;;27.48;;
9160;SDS011;4615;51.340;8.288;2023-04-23T02:49:51;31.08;;;28.48;;
9160;SDS011;4615;51.340;8.288;2023-04-23T02:52:18;31.02;;;28.33;;
9160;SDS011;4615;51.340;8.288;2023-04-23T02:54:44;30.83;;;28.17;;
9160;SDS011;4615;51.340;8.288;2023-04-23T02:57:11;30.67;;;28.13;;
9160;SDS011;4615;51.340;8.288;2023-04-23T02:59:39;31.85;;;29.15;;
9160;SDS011;4615;51.340;8.288;2023-04-23T03:02:06;31.70;;;29.00;;
9160;SDS011;4615;51.340;8.288;2023-04-23T03:04:32;30.02;;;27.55;;
9160;SDS011;4615;51.340;8.288;2023-04-23T03:07:00;30.73;;;28.17;;
9160;SDS011;4615;51.340;8.288;2023-04-23T03:09:26;30.43;;;27.90;;
9160;SDS011;4615;51.340;8.288;2023-04-23T03:11:52;31.90;;;29.15;;
9160;SDS011;4615;51.340;8.288;2023-04-23T03:14:19;33.15;;;30.25;;
9160;SDS011;4615;51.340;8.288;2023-04-23T03:16:46;32.42;;;29.63;;
9160;SDS011;4615;51.340;8.288;2023-04-23T03:19:13;32.15;;;29.45;;
9160;SDS011;4615;51.340;8.288;2023-04-23T03:21:39;32.78;;;29.98;;
9160;SDS011;4615;51.340;8.288;2023-04-23T03:24:07;32.70;;;29.90;;
9160;SDS011;4615;51.340;8.288;2023-04-23T03:26:33;32.08;;;29.38;;
9160;SDS011;4615;51.340;8.288;2023-04-23T03:29:00;34.30;;;31.30;;
9160;SDS011;4615;51.340;8.288;2023-04-23T03:31:26;32.55;;;29.83;;
9160;SDS011;4615;51.340;8.288;2023-04-23T03:33:53;33.10;;;30.23;;
9160;SDS011;4615;51.340;8.288;2023-04-23T03:36:19;33.57;;;30.67;;
9160;SDS011;4615;51.340;8.288;2023-04-23T03:38:45;34.50;;;31.42;;
9160;SDS011;4615;51.340;8.288;2023-04-23T03:41:13;36.20;;;32.83;;
9160;SDS011;4615;51.340;8.288;2023-04-23T03:43:39;35.10;;;32.10;;
9160;SDS011;4615;51.340;8.288;2023-04-23T03:46:06;35.58;;;32.47;;
9160;SDS011;4615;51.340;8.288;2023-04-23T03:48:32;36.25;;;33.05;;
9160;SDS011;4615;51.340;8.288;2023-04-23T03:50:59;37.83;;;34.53;;
9160;SDS011;4615;51.340;8.288;2023-04-23T03:53:25;37.35;;;34.03;;
9160;SDS011;4615;51.340;8.288;2023-04-23T03:55:52;35.30;;;32.30;;
9160;SDS011;4615;51.340;8.288;2023-04-23T03:58:20;37.17;;;33.90;;
9160;SDS011;4615;51.340;8.288;2023-04-23T04:00:46;36.30;;;33.10;;
9160;SDS011;4615;51.340;8.288;2023-04-23T04:03:12;34.53;;;31.50;;
9160;SDS011;4615;51.340;8.288;2023-04-23T04:05:39;36.37;;;33.17;;
9160;SDS011;4615;51.340;8.288;2023-04-23T04:08:05;37.20;;;33.85;;
9160;SDS011;4615;51.340;8.288;2023-04-23T04:10:32;38.00;;;34.70;;
9160;SDS011;4615;51.340;8.288;2023-04-23T04:12:58;38.03;;;34.72;;
9160;SDS011;4615;51.340;8.288;2023-04-23T04:15:26;38.22;;;34.83;;
9160;SDS011;4615;51.340;8.288;2023-04-23T04:17:52;37.47;;;34.17;;
9160;SDS011;4615;51.340;8.288;2023-04-23T04:20:22;37.73;;;34.33;;
9160;SDS011;4615;51.340;8.288;2023-04-23T04:22:48;38.42;;;35.03;;
9160;SDS011;4615;51.340;8.288;2023-04-23T04:25:14;38.33;;;34.92;;
9160;SDS011;4615;51.340;8.288;2023-04-23T04:27:41;37.65;;;34.35;;
9160;SDS011;4615;51.340;8.288;2023-04-23T04:30:08;37.75;;;34.45;;
9160;SDS011;4615;51.340;8.288;2023-04-23T04:32:36;37.28;;;33.88;;
9160;SDS011;4615;51.340;8.288;2023-04-23T04:35:04;37.90;;;34.60;;
9160;SDS011;4615;51.340;8.288;2023-04-23T04:37:32;38.03;;;34.63;;
9160;SDS011;4615;51.340;8.288;2023-04-23T04:39:58;38.47;;;34.97;;
9160;SDS011;4615;51.340;8.288;2023-04-23T04:42:25;37.58;;;34.17;;
9160;SDS011;4615;51.340;8.288;2023-04-23T04:44:51;35.70;;;32.58;;
9160;SDS011;4615;51.340;8.288;2023-04-23T04:47:18;36.05;;;32.78;;
9160;SDS011;4615;51.340;8.288;2023-04-23T04:49:46;33.63;;;30.60;;
9160;SDS011;4615;51.340;8.288;2023-04-23T04:52:12;33.38;;;30.42;;
9160;SDS011;4615;51.340;8.288;2023-04-23T04:54:39;33.73;;;30.73;;
9160;SDS011;4615;51.340;8.288;2023-04-23T04:57:05;34.17;;;31.17;;
9160;SDS011;4615;51.340;8.288;2023-04-23T04:59:32;32.45;;;29.65;;
9160;SDS011;4615;51.340;8.288;2023-04-23T05:01:58;32.87;;;29.97;;
9160;SDS011;4615;51.340;8.288;2023-04-23T05:04:25;32.78;;;29.80;;
9160;SDS011;4615;51.340;8.288;2023-04-23T05:06:52;31.10;;;28.40;;
9160;SDS011;4615;51.340;8.288;2023-04-23T05:09:19;30.50;;;27.70;;
9160;SDS011;4615;51.340;8.288;2023-04-23T05:11:45;29.83;;;27.13;;
9160;SDS011;4615;51.340;8.288;2023-04-23T05:14:12;29.63;;;26.92;;
9160;SDS011;4615;51.340;8.288;2023-04-23T05:16:38;30.13;;;27.33;;
9160;SDS011;4615;51.340;8.288;2023-04-23T05:19:04;28.45;;;25.95;;
9160;SDS011;4615;51.340;8.288;2023-04-23T05:21:32;28.15;;;25.65;;
9160;SDS011;4615;51.340;8.288;2023-04-23T05:24:00;27.55;;;25.15;;
9160;SDS011;4615;51.340;8.288;2023-04-23T05:26:26;25.83;;;23.52;;
9160;SDS011;4615;51.340;8.288;2023-04-23T05:28:53;28.98;;;26.38;;
9160;SDS011;4615;51.340;8.288;2023-04-23T05:31:19;28.55;;;25.75;;
9160;SDS011;4615;51.340;8.288;2023-04-23T05:33:45;27.33;;;24.93;;
9160;SDS011;4615;51.340;8.288;2023-04-23T05:36:12;27.50;;;25.10;;
9160;SDS011;4615;51.340;8.288;2023-04-23T05:38:38;28.10;;;25.58;;
9160;SDS011;4615;51.340;8.288;2023-04-23T05:41:06;26.80;;;24.48;;
9160;SDS011;4615;51.340;8.288;2023-04-23T05:43:32;27.17;;;24.75;;
9160;SDS011;4615;51.340;8.288;2023-04-23T05:45:59;26.92;;;24.63;;
9160;SDS011;4615;51.340;8.288;2023-04-23T05:48:27;25.50;;;23.23;;
9160;SDS011;4615;51.340;8.288;2023-04-23T05:50:53;24.87;;;22.73;;
9160;SDS011;4615;51.340;8.288;2023-04-23T05:53:19;25.40;;;23.10;;
9160;SDS011;4615;51.340;8.288;2023-04-23T05:55:46;25.83;;;23.42;;
9160;SDS011;4615;51.340;8.288;2023-04-23T05:58:13;23.45;;;21.45;;
9160;SDS011;4615;51.340;8.288;2023-04-23T06:00:40;23.85;;;21.83;;
9160;SDS011;4615;51.340;8.288;2023-04-23T06:03:07;23.33;;;21.30;;
9160;SDS011;4615;51.340;8.288;2023-04-23T06:05:33;24.70;;;22.50;;
9160;SDS011;4615;51.340;8.288;2023-04-23T06:08:00;23.33;;;21.23;;
9160;SDS011;4615;51.340;8.288;2023-04-23T06:10:26;22.33;;;20.40;;
9160;SDS011;4615;51.340;8.288;2023-04-23T06:12:52;22.52;;;20.52;;
9160;SDS011;4615;51.340;8.288;2023-04-23T06:15:21;21.55;;;19.85;;
9160;SDS011;4615;51.340;8.288;2023-04-23T06:17:50;21.45;;;19.55;;
9160;SDS011;4615;51.340;8.288;2023-04-23T06:20:17;20.63;;;18.75;;
9160;SDS011;4615;51.340;8.288;2023-04-23T06:22:43;21.58;;;19.77;;
9160;SDS011;4615;51.340;8.288;2023-04-23T06:25:10;20.00;;;18.30;;
9160;SDS011;4615;51.340;8.288;2023-04-23T06:27:36;19.27;;;17.48;;
9160;SDS011;4615;51.340;8.288;2023-04-23T06:30:03;18.63;;;17.13;;
9160;SDS011;4615;51.340;8.288;2023-04-23T06:32:31;18.67;;;17.08;;
9160;SDS011;4615;51.340;8.288;2023-04-23T06:34:57;18.17;;;16.67;;
9160;SDS011;4615;51.340;8.288;2023-04-23T06:37:24;18.38;;;16.77;;
9160;SDS011;4615;51.340;8.288;2023-04-23T06:39:52;17.92;;;16.33;;
9160;SDS011;4615;51.340;8.288;2023-04-23T06:42:19;17.88;;;16.33;;
9160;SDS011;4615;51.340;8.288;2023-04-23T06:44:45;18.48;;;16.88;;
9160;SDS011;4615;51.340;8.288;2023-04-23T06:47:12;17.35;;;15.85;;
9160;SDS011;4615;51.340;8.288;2023-04-23T06:49:40;18.10;;;16.60;;
9160;SDS011;4615;51.340;8.288;2023-04-23T06:52:06;16.85;;;15.38;;
9160;SDS011;4615;51.340;8.288;2023-04-23T06:54:33;15.63;;;14.32;;
9160;SDS011;4615;51.340;8.288;2023-04-23T06:56:59;15.13;;;13.82;;
9160;SDS011;4615;51.340;8.288;2023-04-23T06:59:26;15.40;;;14.00;;
9160;SDS011;4615;51.340;8.288;2023-04-23T07:01:52;16.07;;;14.73;;
9160;SDS011;4615;51.340;8.288;2023-04-23T07:04:19;15.95;;;14.55;;
9160;SDS011;4615;51.340;8.288;2023-04-23T07:06:49;15.63;;;14.13;;
9160;SDS011;4615;51.340;8.288;2023-04-23T07:09:15;15.90;;;14.50;;
9160;SDS011;4615;51.340;8.288;2023-04-23T07:11:42;15.73;;;14.43;;
9160;SDS011;4615;51.340;8.288;2023-04-23T07:14:08;15.85;;;14.55;;
9160;SDS011;4615;51.340;8.288;2023-04-23T07:16:34;16.17;;;14.77;;
9160;SDS011;4615;51.340;8.288;2023-04-23T07:19:01;15.77;;;14.38;;
9160;SDS011;4615;51.340;8.288;2023-04-23T07:21:29;15.05;;;13.85;;
9160;SDS011;4615;51.340;8.288;2023-04-23T07:23:58;14.40;;;13.20;;
9160;SDS011;4615;51.340;8.288;2023-04-23T07:26:27;14.70;;;13.50;;
9160;SDS011;4615;51.340;8.288;2023-04-23T07:28:53;14.83;;;13.53;;
9160;SDS011;4615;51.340;8.288;2023-04-23T07:31:20;14.65;;;13.38;;
9160;SDS011;4615;51.340;8.288;2023-04-23T07:33:47;14.32;;;13.02;;
9160;SDS011;4615;51.340;8.288;2023-04-23T07:36:14;15.05;;;13.75;;
9160;SDS011;4615;51.340;8.288;2023-04-23T07:38:41;15.23;;;13.98;;
9160;SDS011;4615;51.340;8.288;2023-04-23T07:41:09;14.73;;;13.53;;
9160;SDS011;4615;51.340;8.288;2023-04-23T07:43:37;14.87;;;13.57;;
9160;SDS011;4615;51.340;8.288;2023-04-23T07:46:04;14.52;;;13.13;;
9160;SDS011;4615;51.340;8.288;2023-04-23T07:48:30;13.32;;;12.23;;
9160;SDS011;4615;51.340;8.288;2023-04-23T07:50:58;14.10;;;12.90;;
9160;SDS011;4615;51.340;8.288;2023-04-23T07:53:24;12.38;;;11.32;;
9160;SDS011;4615;51.340;8.288;2023-04-23T07:55:52;13.38;;;12.20;;
9160;SDS011;4615;51.340;8.288;2023-04-23T07:58:21;12.93;;;11.63;;
9160;SDS011;4615;51.340;8.288;2023-04-23T08:00:47;11.47;;;10.47;;
9160;SDS011;4615;51.340;8.288;2023-04-23T08:03:14;12.00;;;11.00;;
9160;SDS011;4615;51.340;8.288;2023-04-23T08:05:40;12.00;;;11.00;;
9160;SDS011;4615;51.340;8.288;2023-04-23T08:08:06;11.75;;;10.65;;
9160;SDS011;4615;51.340;8.288;2023-04-23T08:10:33;10.48;;;9.57;;
9160;SDS011;4615;51.340;8.288;2023-04-23T08:13:00;10.30;;;9.40;;
9160;SDS011;4615;51.340;8.288;2023-04-23T08:15:28;9.60;;;8.70;;
9160;SDS011;4615;51.340;8.288;2023-04-23T08:17:54;9.90;;;9.10;;
9160;SDS011;4615;51.340;8.288;2023-04-23T08:20:21;9.93;;;8.98;;
9160;SDS011;4615;51.340;8.288;2023-04-23T08:22:47;9.40;;;8.40;;
9160;SDS011;4615;51.340;8.288;2023-04-23T08:25:14;8.50;;;7.80;;
9160;SDS011;4615;51.340;8.288;2023-04-23T08:27:40;7.85;;;7.15;;
9160;SDS011;4615;51.340;8.288;2023-04-23T08:30:09;7.07;;;6.43;;
9160;SDS011;4615;51.340;8.288;2023-04-23T08:32:37;7.45;;;6.75;;
9160;SDS011;4615;51.340;8.288;2023-04-23T08:35:04;7.57;;;6.88;;
9160;SDS011;4615;51.340;8.288;2023-04-23T08:37:32;7.00;;;6.30;;
9160;SDS011;4615;51.340;8.288;2023-04-23T08:39:59;6.50;;;5.90;;
9160;SDS011;4615;51.340;8.288;2023-04-23T08:42:26;6.25;;;5.75;;
9160;SDS011;4615;51.340;8.288;2023-04-23T08:44:55;6.57;;;5.97;;
9160;SDS011;4615;51.340;8.288;2023-04-23T08:47:22;6.57;;;5.88;;
9160;SDS011;4615;51.340;8.288;2023-04-23T08:49:52;5.82;;;5.32;;
9160;SDS011;4615;51.340;8.288;2023-04-23T08:52:21;5.65;;;5.05;;
9160;SDS011;4615;51.340;8.288;2023-04-23T08:54:48;5.82;;;5.30;;
9160;SDS011;4615;51.340;8.288;2023-04-23T08:57:15;6.43;;;5.43;;
9160;SDS011;4615;51.340;8.288;2023-04-23T08:59:43;5.38;;;4.85;;
9160;SDS011;4615;51.340;8.288;2023-04-23T09:02:10;5.50;;;5.00;;
9160;SDS011;4615;51.340;8.288;2023-04-23T09:04:36;5.18;;;4.68;;
9160;SDS011;4615;51.340;8.288;2023-04-23T09:07:04;7.13;;;4.70;;
9160;SDS011;4615;51.340;8.288;2023-04-23T09:09:35;5.13;;;4.37;;
9160;SDS011;4615;51.340;8.288;2023-04-23T09:12:01;5.05;;;4.55;;
9160;SDS011;4615;51.340;8.288;2023-04-23T09:14:29;4.35;;;3.95;;
9160;SDS011;4615;51.340;8.288;2023-04-23T09:16:56;5.90;;;4.20;;
9160;SDS011;4615;51.340;8.288;2023-04-23T09:19:22;4.37;;;3.93;;
9160;SDS011;4615;51.340;8.288;2023-04-23T09:21:52;4.05;;;3.65;;
9160;SDS011;4615;51.340;8.288;2023-04-23T09:24:20;5.07;;;3.80;;
9160;SDS011;4615;51.340;8.288;2023-04-23T09:26:47;4.35;;;3.72;;
9160;SDS011;4615;51.340;8.288;2023-04-23T09:29:14;3.90;;;3.50;;
9160;SDS011;4615;51.340;8.288;2023-04-23T09:31:43;4.97;;;3.60;;
9160;SDS011;4615;51.340;8.288;2023-04-23T09:34:09;4.65;;;3.60;;
9160;SDS011;4615;51.340;8.288;2023-04-23T09:36:36;3.90;;;3.50;;
9160;SDS011;4615;51.340;8.288;2023-04-23T09:39:02;3.67;;;3.30;;
9160;SDS011;4615;51.340;8.288;2023-04-23T09:41:38;3.58;;;3.05;;
9160;SDS011;4615;51.340;8.288;2023-04-23T09:44:04;4.88;;;3.28;;
9160;SDS011;4615;51.340;8.288;2023-04-23T09:46:31;5.22;;;3.42;;
9160;SDS011;4615;51.340;8.288;2023-04-23T09:48:57;4.05;;;2.90;;
9160;SDS011;4615;51.340;8.288;2023-04-23T09:51:25;3.78;;;2.80;;
9160;SDS011;4615;51.340;8.288;2023-04-23T09:53:52;4.32;;;3.22;;
9160;SDS011;4615;51.340;8.288;2023-04-23T09:56:18;5.90;;;5.20;;
9160;SDS011;4615;51.340;8.288;2023-04-23T09:58:46;7.78;;;5.57;;
9160;SDS011;4615;51.340;8.288;2023-04-23T10:01:13;12.65;;;9.88;;
9160;SDS011;4615;51.340;8.288;2023-04-23T10:03:40;18.65;;;14.63;;
9160;SDS011;4615;51.340;8.288;2023-04-23T10:06:07;30.95;;;26.10;;
9160;SDS011;4615;51.340;8.288;2023-04-23T10:08:33;8.88;;;5.35;;
9160;SDS011;4615;51.340;8.288;2023-04-23T10:11:00;3.95;;;2.60;;
9160;SDS011;4615;51.340;8.288;2023-04-23T10:13:27;7.10;;;6.40;;
9160;SDS011;4615;51.340;8.288;2023-04-23T10:15:54;4.45;;;2.97;;
9160;SDS011;4615;51.340;8.288;2023-04-23T10:18:21;6.45;;;5.15;;
9160;SDS011;4615;51.340;8.288;2023-04-23T10:20:48;7.03;;;5.53;;
9160;SDS011;4615;51.340;8.288;2023-04-23T10:23:15;3.80;;;2.65;;
9160;SDS011;4615;51.340;8.288;2023-04-23T10:25:42;3.20;;;2.60;;
9160;SDS011;4615;51.340;8.288;2023-04-23T10:28:09;5.03;;;2.53;;
9160;SDS011;4615;51.340;8.288;2023-04-23T10:30:36;2.60;;;2.30;;
9160;SDS011;4615;51.340;8.288;2023-04-23T10:33:04;3.10;;;2.53;;
9160;SDS011;4615;51.340;8.288;2023-04-23T10:35:32;4.32;;;2.88;;
9160;SDS011;4615;51.340;8.288;2023-04-23T10:37:59;3.47;;;2.80;;
9160;SDS011;4615;51.340;8.288;2023-04-23T10:40:28;4.15;;;2.65;;
9160;SDS011;4615;51.340;8.288;2023-04-23T10:42:55;10.20;;;9.20;;
9160;SDS011;4615;51.340;8.288;2023-04-23T10:45:22;5.20;;;4.40;;
9160;SDS011;4615;51.340;8.288;2023-04-23T10:47:48;5.00;;;3.60;;
9160;SDS011;4615;51.340;8.288;2023-04-23T10:50:20;2.65;;;2.42;;
9160;SDS011;4615;51.340;8.288;2023-04-23T10:52:46;3.07;;;2.70;;
9160;SDS011;4615;51.340;8.288;2023-04-23T10:55:15;3.38;;;2.40;;
9160;SDS011;4615;51.340;8.288;2023-04-23T10:57:53;4.97;;;2.50;;
9160;SDS011;4615;51.340;8.288;2023-04-23T11:00:20;3.42;;;2.40;;
9160;SDS011;4615;51.340;8.288;2023-04-23T11:02:47;4.00;;;2.40;;
9160;SDS011;4615;51.340;8.288;2023-04-23T11:05:15;2.50;;;2.30;;
9160;SDS011;4615;51.340;8.288;2023-04-23T11:07:50;4.28;;;2.33;;
9160;SDS011;4615;51.340;8.288;2023-04-23T11:10:26;4.40;;;2.20;;
9160;SDS011;4615;51.340;8.288;2023-04-23T11:12:54;3.47;;;2.13;;
9160;SDS011;4615;51.340;8.288;2023-04-23T11:15:21;3.20;;;2.00;;
9160;SDS011;4615;51.340;8.288;2023-04-23T11:17:59;2.92;;;1.90;;
9160;SDS011;4615;51.340;8.288;2023-04-23T11:20:26;2.60;;;1.80;;
9160;SDS011;4615;51.340;8.288;2023-04-23T11:22:54;3.15;;;1.75;;
9160;SDS011;4615;51.340;8.288;2023-04-23T11:25:21;2.95;;;2.03;;
9160;SDS011;4615;51.340;8.288;2023-04-23T11:27:50;2.92;;;2.00;;
9160;SDS011;4615;51.340;8.288;2023-04-23T11:30:17;3.58;;;2.50;;
9160;SDS011;4615;51.340;8.288;2023-04-23T11:32:44;4.00;;;1.88;;
9160;SDS011;4615;51.340;8.288;2023-04-23T11:35:12;2.05;;;1.83;;
9160;SDS011;4615;51.340;8.288;2023-04-23T11:37:39;5.53;;;2.00;;
9160;SDS011;4615;51.340;8.288;2023-04-23T11:40:08;2.85;;;1.85;;
9160;SDS011;4615;51.340;8.288;2023-04-23T11:42:41;2.55;;;1.80;;
9160;SDS011;4615;51.340;8.288;2023-04-23T11:45:14;2.85;;;1.65;;
9160;SDS011;4615;51.340;8.288;2023-04-23T11:47:40;2.95;;;1.90;;
9160;SDS011;4615;51.340;8.288;2023-04-23T11:50:07;3.47;;;2.00;;
9160;SDS011;4615;51.340;8.288;2023-04-23T11:52:34;1.73;;;1.60;;
9160;SDS011;4615;51.340;8.288;2023-04-23T11:55:01;2.38;;;1.98;;
9160;SDS011;4615;51.340;8.288;2023-04-23T11:57:29;2.97;;;1.75;;
9160;SDS011;4615;51.340;8.288;2023-04-23T11:59:56;3.25;;;1.77;;
9160;SDS011;4615;51.340;8.288;2023-04-23T12:02:22;3.03;;;1.90;;
9160;SDS011;4615;51.340;8.288;2023-04-23T12:04:48;4.85;;;1.80;;
9160;SDS011;4615;51.340;8.288;2023-04-23T12:07:15;3.03;;;1.70;;
9160;SDS011;4615;51.340;8.288;2023-04-23T12:09:42;1.75;;;1.60;;
9160;SDS011;4615;51.340;8.288;2023-04-23T12:12:10;2.88;;;1.75;;
9160;SDS011;4615;51.340;8.288;2023-04-23T12:14:38;2.72;;;1.60;;
9160;SDS011;4615;51.340;8.288;2023-04-23T12:17:08;2.17;;;1.50;;
9160;SDS011;4615;51.340;8.288;2023-04-23T12:19:34;2.35;;;1.60;;
9160;SDS011;4615;51.340;8.288;2023-04-23T12:22:01;2.50;;;1.85;;
9160;SDS011;4615;51.340;8.288;2023-04-23T12:24:28;2.25;;;1.70;;
9160;SDS011;4615;51.340;8.288;2023-04-23T12:26:55;2.70;;;1.70;;
9160;SDS011;4615;51.340;8.288;2023-04-23T12:29:24;4.25;;;1.77;;
9160;SDS011;4615;51.340;8.288;2023-04-23T12:31:52;3.03;;;1.60;;
9160;SDS011;4615;51.340;8.288;2023-04-23T12:34:19;2.20;;;1.67;;
9160;SDS011;4615;51.340;8.288;2023-04-23T12:36:47;3.40;;;1.60;;
9160;SDS011;4615;51.340;8.288;2023-04-23T12:39:17;2.40;;;1.53;;
9160;SDS011;4615;51.340;8.288;2023-04-23T12:41:44;3.00;;;1.73;;
9160;SDS011;4615;51.340;8.288;2023-04-23T12:44:10;3.50;;;1.70;;
9160;SDS011;4615;51.340;8.288;2023-04-23T12:46:37;2.88;;;1.60;;
9160;SDS011;4615;51.340;8.288;2023-04-23T12:49:05;2.60;;;1.50;;
9160;SDS011;4615;51.340;8.288;2023-04-23T12:51:31;2.75;;;1.60;;
9160;SDS011;4615;51.340;8.288;2023-04-23T12:53:57;2.53;;;1.60;;
9160;SDS011;4615;51.340;8.288;2023-04-23T12:56:24;2.20;;;1.50;;
9160;SDS011;4615;51.340;8.288;2023-04-23T12:58:51;3.65;;;1.40;;
9160;SDS011;4615;51.340;8.288;2023-04-23T13:01:17;2.10;;;1.50;;
9160;SDS011;4615;51.340;8.288;2023-04-23T13:03:44;3.05;;;1.63;;
9160;SDS011;4615;51.340;8.288;2023-04-23T13:06:12;3.15;;;1.73;;
9160;SDS011;4615;51.340;8.288;2023-04-23T13:08:38;2.67;;;1.70;;
9160;SDS011;4615;51.340;8.288;2023-04-23T13:11:04;2.08;;;1.60;;
9160;SDS011;4615;51.340;8.288;2023-04-23T13:13:31;2.78;;;1.60;;
9160;SDS011;4615;51.340;8.288;2023-04-23T13:15:57;2.47;;;1.60;;
9160;SDS011;4615;51.340;8.288;2023-04-23T13:18:23;2.97;;;1.55;;
9160;SDS011;4615;51.340;8.288;2023-04-23T13:20:50;2.67;;;1.50;;
9160;SDS011;4615;51.340;8.288;2023-04-23T13:23:18;2.67;;;1.70;;
9160;SDS011;4615;51.340;8.288;2023-04-23T13:25:44;2.45;;;1.40;;
9160;SDS011;4615;51.340;8.288;2023-04-23T13:28:10;2.83;;;1.60;;
9160;SDS011;4615;51.340;8.288;2023-04-23T13:30:37;3.03;;;1.63;;
9160;SDS011;4615;51.340;8.288;2023-04-23T13:33:03;2.42;;;1.52;;
9160;SDS011;4615;51.340;8.288;2023-04-23T13:35:30;2.40;;;1.50;;
9160;SDS011;4615;51.340;8.288;2023-04-23T13:37:57;2.47;;;1.40;;
9160;SDS011;4615;51.340;8.288;2023-04-23T13:40:25;3.80;;;1.60;;
9160;SDS011;4615;51.340;8.288;2023-04-23T13:42:51;2.45;;;1.40;;
9160;SDS011;4615;51.340;8.288;2023-04-23T13:45:19;1.85;;;1.38;;
9160;SDS011;4615;51.340;8.288;2023-04-23T13:47:45;2.45;;;1.40;;
9160;SDS011;4615;51.340;8.288;2023-04-23T13:50:12;3.42;;;1.45;;
9160;SDS011;4615;51.340;8.288;2023-04-23T13:52:38;1.98;;;1.38;;
9160;SDS011;4615;51.340;8.288;2023-04-23T13:55:05;1.95;;;1.35;;
9160;SDS011;4615;51.340;8.288;2023-04-23T13:57:34;2.70;;;1.40;;
9160;SDS011;4615;51.340;8.288;2023-04-23T14:00:02;1.48;;;1.30;;
9160;SDS011;4615;51.340;8.288;2023-04-23T14:02:29;1.30;;;1.20;;
9160;SDS011;4615;51.340;8.288;2023-04-23T14:04:55;2.13;;;1.47;;
9160;SDS011;4615;51.340;8.288;2023-04-23T14:07:22;2.22;;;1.38;;
9160;SDS011;4615;51.340;8.288;2023-04-23T14:09:48;1.90;;;1.40;;
9160;SDS011;4615;51.340;8.288;2023-04-23T14:12:16;1.33;;;1.23;;
9160;SDS011;4615;51.340;8.288;2023-04-23T14:14:45;1.60;;;1.40;;
9160;SDS011;4615;51.340;8.288;2023-04-23T14:17:11;1.60;;;1.48;;
9160;SDS011;4615;51.340;8.288;2023-04-23T14:19:37;1.45;;;1.35;;
9160;SDS011;4615;51.340;8.288;2023-04-23T14:22:04;2.22;;;1.42;;
9160;SDS011;4615;51.340;8.288;2023-04-23T14:24:32;1.73;;;1.58;;
9160;SDS011;4615;51.340;8.288;2023-04-23T14:26:58;2.28;;;1.70;;
9160;SDS011;4615;51.340;8.288;2023-04-23T14:29:28;2.30;;;1.60;;
9160;SDS011;4615;51.340;8.288;2023-04-23T14:31:57;2.28;;;1.63;;
9160;SDS011;4615;51.340;8.288;2023-04-23T14:34:23;2.08;;;1.55;;
9160;SDS011;4615;51.340;8.288;2023-04-23T14:36:52;1.73;;;1.50;;
9160;SDS011;4615;51.340;8.288;2023-04-23T14:39:20;1.83;;;1.50;;
9160;SDS011;4615;51.340;8.288;2023-04-23T14:41:46;2.03;;;1.58;;
9160;SDS011;4615;51.340;8.288;2023-04-23T14:44:13;2.50;;;1.70;;
9160;SDS011;4615;51.340;8.288;2023-04-23T14:46:39;1.60;;;1.50;;
9160;SDS011;4615;51.340;8.288;2023-04-23T14:49:07;2.23;;;1.60;;
9160;SDS011;4615;51.340;8.288;2023-04-23T14:51:33;1.77;;;1.67;;
9160;SDS011;4615;51.340;8.288;2023-04-23T14:54:01;1.60;;;1.50;;
9160;SDS011;4615;51.340;8.288;2023-04-23T14:56:27;2.90;;;1.70;;
9160;SDS011;4615;51.340;8.288;2023-04-23T14:58:54;1.95;;;1.70;;